JES3164 SACO-SABE
Flight info
| Callsign | JES3164 |
|---|---|
| Flight time | N/A |
| Altitude | 35000 |
| Route | UTRAX1C UTRAX UW24 SNT SNT8Q |
| Aircraft | A320/M-SDE3FGHIRWY/LB1 |
Departure
| Time | 2026-04-30 22:37 |
|---|---|
| Airport | Ingeniero Aeronáutico Ambrosio L.V. Taravella International Airport (SACO) |
Arrival
| Time | N/A |
|---|---|
| Airport | Aeroparque Jorge Newbery (SABE) |
| Time | Latitude | Longitude | Altitude | Speed | Heading |
|---|---|---|---|---|---|
| 2026-04-30 22:00 | -31.31552 | -64.21172 | 1615 ft | 0 kts | 259° |
| 2026-04-30 22:14 | -31.31552 | -64.21171 | 1586 ft | 0 kts | 259° |
| 2026-04-30 22:27 | -31.31549 | -64.21153 | 1621 ft | 3 kts | 258° |
| 2026-04-30 22:27 | -31.31539 | -64.21140 | 1620 ft | 3 kts | 301° |
| 2026-04-30 22:28 | -31.31533 | -64.21143 | 1618 ft | 3 kts | 297° |
| 2026-04-30 22:28 | -31.31537 | -64.21127 | 1617 ft | 2 kts | 222° |
| 2026-04-30 22:29 | -31.31517 | -64.21076 | 1618 ft | 1 kts | 188° |
| 2026-04-30 22:29 | -31.31515 | -64.21075 | 1617 ft | 3 kts | 188° |
| 2026-04-30 22:32 | -31.31643 | -64.21103 | 1619 ft | 18 kts | 179° |
| 2026-04-30 22:32 | -31.31862 | -64.21030 | 1617 ft | 21 kts | 179° |
| 2026-04-30 22:33 | -31.32268 | -64.21021 | 1615 ft | 16 kts | 179° |
| 2026-04-30 22:33 | -31.32402 | -64.21004 | 1618 ft | 0 kts | 142° |
| 2026-04-30 22:35 | -31.32393 | -64.20832 | 1615 ft | 11 kts | 41° |
| 2026-04-30 22:36 | -31.31439 | -64.20825 | 1622 ft | 137 kts | 359° |
| 2026-04-30 22:36 | -31.30313 | -64.20825 | 1810 ft | 175 kts | 0° |
| 2026-04-30 22:37 | -31.26707 | -64.20340 | 3236 ft | 186 kts | 44° |
| 2026-04-30 22:37 | -31.25956 | -64.19089 | 3748 ft | 190 kts | 59° |
| 2026-04-30 22:37 | -31.24548 | -64.16437 | 4845 ft | 196 kts | 63° |
| 2026-04-30 22:38 | -31.24188 | -64.13220 | 5864 ft | 206 kts | 87° |
| 2026-04-30 22:38 | -31.24940 | -64.09947 | 6632 ft | 228 kts | 119° |
| 2026-04-30 22:39 | -31.25784 | -64.08264 | 6854 ft | 250 kts | 120° |
| 2026-04-30 22:39 | -31.28847 | -64.03100 | 8645 ft | 276 kts | 136° |
| 2026-04-30 22:40 | -31.33304 | -63.98098 | 10267 ft | 306 kts | 133° |
| 2026-04-30 22:41 | -31.38276 | -63.92494 | 11215 ft | 354 kts | 137° |
| 2026-04-30 22:41 | -31.41692 | -63.88230 | 12371 ft | 364 kts | 133° |
| 2026-04-30 22:42 | -31.48524 | -63.79094 | 14551 ft | 380 kts | 134° |
| 2026-04-30 22:43 | -31.52047 | -63.74398 | 15593 ft | 386 kts | 134° |
| 2026-04-30 22:43 | -31.55629 | -63.69633 | 16642 ft | 392 kts | 135° |
| 2026-04-30 22:44 | -31.59262 | -63.64792 | 17688 ft | 398 kts | 135° |
| 2026-04-30 22:45 | -31.66697 | -63.54892 | 19591 ft | 409 kts | 136° |
| 2026-04-30 22:45 | -31.70448 | -63.49863 | 20528 ft | 415 kts | 136° |
| 2026-04-30 22:46 | -31.74266 | -63.44738 | 21453 ft | 419 kts | 136° |
| 2026-04-30 22:47 | -31.82057 | -63.34296 | 23240 ft | 429 kts | 137° |
| 2026-04-30 22:47 | -31.86010 | -63.28975 | 23982 ft | 434 kts | 137° |
| 2026-04-30 22:48 | -31.90007 | -63.23592 | 24697 ft | 439 kts | 137° |
| 2026-04-30 22:49 | -31.96081 | -63.15408 | 25767 ft | 446 kts | 137° |
| 2026-04-30 22:49 | -32.02233 | -63.07080 | 26805 ft | 452 kts | 137° |
| 2026-04-30 22:50 | -32.10569 | -62.95773 | 28155 ft | 461 kts | 137° |
| 2026-04-30 22:51 | -32.14795 | -62.90028 | 28850 ft | 465 kts | 137° |
| 2026-04-30 22:51 | -32.19032 | -62.84274 | 29522 ft | 469 kts | 138° |
| 2026-04-30 22:52 | -32.21178 | -62.81360 | 29874 ft | 471 kts | 138° |
| 2026-04-30 22:52 | -32.25481 | -62.75487 | 30701 ft | 468 kts | 138° |
| 2026-04-30 22:53 | -32.29734 | -62.69668 | 31469 ft | 467 kts | 139° |
| 2026-04-30 22:53 | -32.33965 | -62.63931 | 32269 ft | 464 kts | 136° |
| 2026-04-30 22:53 | -32.36089 | -62.61059 | 32632 ft | 464 kts | 139° |
| 2026-04-30 22:54 | -32.40294 | -62.55257 | 33410 ft | 464 kts | 139° |
| 2026-04-30 22:55 | -32.46570 | -62.46559 | 34452 ft | 462 kts | 139° |
| 2026-04-30 22:55 | -32.50763 | -62.40785 | 34863 ft | 463 kts | 139° |
| 2026-04-30 22:56 | -32.54960 | -62.35008 | 34883 ft | 462 kts | 140° |
| 2026-04-30 22:57 | -32.65406 | -62.20556 | 34886 ft | 461 kts | 140° |
| 2026-04-30 22:58 | -32.73191 | -62.08309 | 34887 ft | 468 kts | 134° |
| 2026-04-30 22:59 | -32.84303 | -61.89246 | 34895 ft | 467 kts | 134° |